createdAt,value
2023-04-28T00:01:38.071Z,54.10
2023-04-28T00:04:05.296Z,55.01
2023-04-28T00:06:32.165Z,54.66
2023-04-28T00:08:58.897Z,54.71
2023-04-28T00:11:25.595Z,54.71
2023-04-28T00:13:52.167Z,55.13
2023-04-28T00:16:18.906Z,55.38
2023-04-28T00:18:45.466Z,54.57
2023-04-28T00:21:12.124Z,54.28
2023-04-28T00:23:38.657Z,55.25
2023-04-28T00:26:06.160Z,54.94
2023-04-28T00:28:34.701Z,54.76
2023-04-28T00:31:02.303Z,55.41
2023-04-28T00:33:28.912Z,55.22
2023-04-28T00:36:00.620Z,55.18
2023-04-28T00:38:27.274Z,55.37
2023-04-28T00:40:53.967Z,54.96
2023-04-28T00:43:20.610Z,55.03
2023-04-28T00:45:47.265Z,55.00
2023-04-28T00:48:14.222Z,56.01
2023-04-28T00:50:41.792Z,55.67
2023-04-28T00:53:08.609Z,56.05
2023-04-28T00:55:35.753Z,56.48
2023-04-28T00:58:02.614Z,55.99
2023-04-28T01:00:29.307Z,55.64
2023-04-28T01:02:57.756Z,56.04
2023-04-28T01:05:29.558Z,56.36
2023-04-28T01:07:56.795Z,56.10
2023-04-28T01:10:23.420Z,56.01
2023-04-28T01:12:49.981Z,56.02
2023-04-28T01:15:19.044Z,56.32
2023-04-28T01:17:47.445Z,56.06
2023-04-28T01:20:15.166Z,57.33
2023-04-28T01:22:42.470Z,56.91
2023-04-28T01:25:09.765Z,56.91
2023-04-28T01:27:39.376Z,57.59
2023-04-28T01:30:06.823Z,56.59
2023-04-28T01:32:33.707Z,56.70
2023-04-28T01:35:00.334Z,57.02
2023-04-28T01:37:26.929Z,57.14
2023-04-28T01:39:54.132Z,56.99
2023-04-28T01:42:20.970Z,57.37
2023-04-28T01:44:47.682Z,57.49
2023-04-28T01:47:14.369Z,57.54
2023-04-28T01:49:40.898Z,57.52
2023-04-28T01:52:07.918Z,57.29
2023-04-28T01:54:35.121Z,57.30
2023-04-28T01:57:03.249Z,57.20
2023-04-28T01:59:31.112Z,57.37
2023-04-28T02:01:57.935Z,58.04
2023-04-28T02:04:25.141Z,57.42
2023-04-28T02:06:51.820Z,57.31
2023-04-28T02:09:18.576Z,57.89
2023-04-28T02:11:45.266Z,57.15
2023-04-28T02:14:11.853Z,57.46
2023-04-28T02:16:38.470Z,57.31
2023-04-28T02:19:05.065Z,57.48
2023-04-28T02:21:31.961Z,57.24
2023-04-28T02:23:58.828Z,57.72
2023-04-28T02:26:25.891Z,58.25
2023-04-28T02:28:52.546Z,57.72
2023-04-28T02:31:19.204Z,57.33
2023-04-28T02:33:46.283Z,57.80
2023-04-28T02:36:13.239Z,57.63
2023-04-28T02:38:41.737Z,57.71
2023-04-28T02:41:11.761Z,58.07
2023-04-28T02:43:38.425Z,58.31
2023-04-28T02:46:05.703Z,58.81
2023-04-28T02:48:33.960Z,58.05
2023-04-28T02:51:00.558Z,57.92
2023-04-28T02:53:27.412Z,58.36
2023-04-28T02:55:54.424Z,58.65
2023-04-28T02:58:21.116Z,58.57
2023-04-28T03:00:48.136Z,59.73
2023-04-28T03:03:16.260Z,58.40
2023-04-28T03:05:43.183Z,58.84
2023-04-28T03:08:10.110Z,59.19
2023-04-28T03:10:36.940Z,58.72
2023-04-28T03:13:04.543Z,59.82
2023-04-28T03:15:31.166Z,59.26
2023-04-28T03:17:58.087Z,58.94
2023-04-28T03:20:24.770Z,59.55
2023-04-28T03:22:51.365Z,59.73
2023-04-28T03:25:18.490Z,59.66
2023-04-28T03:27:50.986Z,59.46
2023-04-28T03:30:17.852Z,59.58
2023-04-28T03:32:44.551Z,59.75
2023-04-28T03:35:14.249Z,60.62
2023-04-28T03:37:41.540Z,59.84
2023-04-28T03:40:08.848Z,60.53
2023-04-28T03:42:53.210Z,61.35
2023-04-28T03:45:33.677Z,60.49
2023-04-28T03:48:00.500Z,60.57
2023-04-28T03:50:27.105Z,61.00
2023-04-28T03:52:54.783Z,61.10
2023-04-28T03:55:21.956Z,61.48
2023-04-28T03:57:48.664Z,61.61
2023-04-28T04:00:16.475Z,62.52
2023-04-28T04:02:45.341Z,61.58
2023-04-28T04:05:15.473Z,61.99
2023-04-28T04:07:42.306Z,62.53
2023-04-28T04:10:11.830Z,61.95
2023-04-28T04:12:41.898Z,62.08
2023-04-28T04:15:09.189Z,62.96
2023-04-28T04:17:37.067Z,65.18
2023-04-28T04:20:03.856Z,65.84
2023-04-28T04:22:30.440Z,66.05
2023-04-28T04:24:57.031Z,66.31
2023-04-28T04:27:25.841Z,67.52
2023-04-28T04:29:52.459Z,67.78
2023-04-28T04:32:19.021Z,69.31
2023-04-28T04:34:45.775Z,68.52
2023-04-28T04:37:13.197Z,69.06
2023-04-28T04:39:50.164Z,68.68
2023-04-28T04:42:24.296Z,68.03
2023-04-28T04:45:03.429Z,69.93
2023-04-28T04:47:31.005Z,72.02
2023-04-28T04:49:57.999Z,71.06
2023-04-28T04:52:25.036Z,70.96
2023-04-28T04:54:52.008Z,71.50
2023-04-28T04:57:18.799Z,72.15
2023-04-28T05:00:06.162Z,71.66
2023-04-28T05:02:32.829Z,71.51
2023-04-28T05:05:08.535Z,70.56
2023-04-28T05:07:48.269Z,70.97
2023-04-28T05:10:15.077Z,69.37
2023-04-28T05:12:45.614Z,69.13
2023-04-28T05:15:14.613Z,71.63
2023-04-28T05:17:50.912Z,69.93
2023-04-28T05:20:17.878Z,70.76
2023-04-28T05:22:44.556Z,69.87
2023-04-28T05:25:13.804Z,69.73
2023-04-28T05:27:41.142Z,68.66
2023-04-28T05:30:10.563Z,68.80
2023-04-28T05:32:38.272Z,69.99
2023-04-28T05:35:05.894Z,69.11
2023-04-28T05:37:32.451Z,68.54
2023-04-28T05:39:59.125Z,71.83
2023-04-28T05:42:25.946Z,71.61
2023-04-28T05:44:52.668Z,70.23
2023-04-28T05:47:19.269Z,73.18
2023-04-28T05:49:47.883Z,74.37
2023-04-28T05:52:14.525Z,75.98
2023-04-28T05:54:41.170Z,77.33
2023-04-28T05:57:08.139Z,76.35
2023-04-28T05:59:35.144Z,76.21
2023-04-28T06:02:02.417Z,77.13
2023-04-28T06:04:29.675Z,76.33
2023-04-28T06:06:56.994Z,76.49
2023-04-28T06:09:23.885Z,75.95
2023-04-28T06:11:52.819Z,76.88
2023-04-28T06:14:19.948Z,76.80
2023-04-28T06:16:47.543Z,77.60
2023-04-28T06:19:15.327Z,78.19
2023-04-28T06:21:41.997Z,77.06
2023-04-28T06:24:08.583Z,79.47
2023-04-28T06:26:35.734Z,78.50
2023-04-28T06:29:02.376Z,79.85
2023-04-28T06:31:29.930Z,79.56
2023-04-28T06:33:56.674Z,78.22
2023-04-28T06:36:24.243Z,78.33
2023-04-28T06:38:51.486Z,77.92
2023-04-28T06:41:18.093Z,77.80
2023-04-28T06:43:48.067Z,77.79
2023-04-28T06:46:20.099Z,79.14
2023-04-28T06:48:46.919Z,79.64
2023-04-28T06:51:16.644Z,80.97
2023-04-28T06:53:43.398Z,79.20
2023-04-28T06:56:11.609Z,80.38
2023-04-28T06:58:38.462Z,80.47
2023-04-28T07:01:05.793Z,80.40
2023-04-28T07:03:32.742Z,83.86
2023-04-28T07:05:59.662Z,85.85
2023-04-28T07:08:26.804Z,84.97
2023-04-28T07:10:53.329Z,84.72
2023-04-28T07:13:19.924Z,86.90
2023-04-28T07:15:46.617Z,86.39
2023-04-28T07:18:13.289Z,86.64
2023-04-28T07:20:39.964Z,86.82
2023-04-28T07:23:06.582Z,86.69
2023-04-28T07:25:33.432Z,86.33
2023-04-28T07:28:03.107Z,88.25
2023-04-28T07:30:29.621Z,88.14
2023-04-28T07:32:56.360Z,87.64
2023-04-28T07:35:23.715Z,88.35
2023-04-28T07:37:50.595Z,86.97
2023-04-28T07:40:17.898Z,88.19
2023-04-28T07:42:45.326Z,86.94
2023-04-28T07:45:12.362Z,86.65
2023-04-28T07:47:39.000Z,87.29
2023-04-28T07:50:06.943Z,87.46
2023-04-28T07:52:34.251Z,86.83
2023-04-28T07:55:02.623Z,87.06
2023-04-28T07:57:29.380Z,87.25
2023-04-28T07:59:56.172Z,87.31
2023-04-28T08:02:23.015Z,87.88
2023-04-28T08:04:49.788Z,87.45
2023-04-28T08:07:16.572Z,86.35
2023-04-28T08:09:47.159Z,87.10
2023-04-28T08:12:14.878Z,87.16
2023-04-28T08:14:41.594Z,87.10
2023-04-28T08:17:11.616Z,87.80
2023-04-28T08:19:38.225Z,88.37
2023-04-28T08:22:07.805Z,86.31
2023-04-28T08:24:34.546Z,86.30
2023-04-28T08:27:04.229Z,88.30
2023-04-28T08:29:32.085Z,87.25
2023-04-28T08:31:59.327Z,87.29
2023-04-28T08:34:25.991Z,87.40
2023-04-28T08:36:53.316Z,86.76
2023-04-28T08:39:20.792Z,86.16
2023-04-28T08:41:47.479Z,87.94
2023-04-28T08:44:14.335Z,87.63
2023-04-28T08:46:42.241Z,88.23
2023-04-28T08:49:14.600Z,88.34
2023-04-28T08:52:05.210Z,89.65
2023-04-28T08:54:33.551Z,89.35
2023-04-28T08:57:01.216Z,90.02
2023-04-28T08:59:28.130Z,89.71
2023-04-28T09:01:54.876Z,89.24
2023-04-28T09:04:22.297Z,89.90
2023-04-28T09:06:49.209Z,92.24
2023-04-28T09:09:27.448Z,96.32
2023-04-28T09:12:02.723Z,98.52
2023-04-28T09:14:31.028Z,100.00
2023-04-28T09:16:57.639Z,100.00
2023-04-28T09:19:24.776Z,100.00
2023-04-28T09:21:54.464Z,100.00
2023-04-28T09:24:34.448Z,100.00
2023-04-28T09:27:02.862Z,100.00
2023-04-28T09:29:33.823Z,100.00
2023-04-28T09:32:12.835Z,100.00
2023-04-28T09:34:45.758Z,100.00
2023-04-28T09:37:17.259Z,100.00
2023-04-28T09:39:49.350Z,100.00
2023-04-28T09:42:34.602Z,100.00
2023-04-28T09:45:10.136Z,100.00
2023-04-28T09:47:48.142Z,100.00
2023-04-28T09:50:17.507Z,100.00
2023-04-28T09:52:46.904Z,100.00
2023-04-28T09:55:13.729Z,100.00
2023-04-28T09:57:40.623Z,100.00
2023-04-28T10:00:09.460Z,100.00
2023-04-28T10:05:10.449Z,100.00
2023-04-28T10:07:40.593Z,100.00
2023-04-28T10:10:08.452Z,100.00
2023-04-28T10:12:38.375Z,100.00
2023-04-28T10:15:06.361Z,100.00
2023-04-28T10:17:33.830Z,95.17
2023-04-28T10:20:08.737Z,97.41
2023-04-28T10:22:57.330Z,100.00
2023-04-28T10:25:30.064Z,99.22
2023-04-28T10:27:58.612Z,98.09
2023-04-28T10:30:29.651Z,96.99
2023-04-28T10:33:06.303Z,98.58
2023-04-28T10:35:33.249Z,95.58
2023-04-28T10:38:05.652Z,93.81
2023-04-28T10:40:39.934Z,95.62
2023-04-28T10:43:08.692Z,96.97
2023-04-28T10:45:57.775Z,95.67
2023-04-28T10:48:34.027Z,94.88
2023-04-28T10:51:03.966Z,93.97
2023-04-28T10:53:43.293Z,94.08
2023-04-28T10:56:26.874Z,93.47
2023-04-28T10:58:58.153Z,91.43
2023-04-28T11:01:29.718Z,94.06
2023-04-28T11:04:18.370Z,92.56
2023-04-28T11:07:12.955Z,87.20
2023-04-28T11:09:40.343Z,91.23
2023-04-28T11:12:10.577Z,88.81
2023-04-28T11:14:40.536Z,89.16
2023-04-28T11:17:13.604Z,88.76
2023-04-28T11:19:48.722Z,88.87
2023-04-28T11:22:15.628Z,90.83
2023-04-28T11:24:55.187Z,89.12
2023-04-28T11:27:26.854Z,85.68
2023-04-28T11:29:54.052Z,86.26
2023-04-28T11:32:49.637Z,88.94
2023-04-28T11:35:16.319Z,88.42
2023-04-28T11:37:42.934Z,85.37
2023-04-28T11:40:13.441Z,85.99
2023-04-28T11:42:49.656Z,87.63
2023-04-28T11:45:16.467Z,87.35
2023-04-28T11:47:43.432Z,89.21
2023-04-28T11:50:10.279Z,86.62
2023-04-28T11:52:37.463Z,85.85
2023-04-28T11:55:04.917Z,84.25
2023-04-28T11:57:31.479Z,81.88
2023-04-28T12:00:15.433Z,82.89
2023-04-28T12:02:42.276Z,83.43
2023-04-28T12:05:10.920Z,83.81
2023-04-28T12:07:45.533Z,82.30
2023-04-28T12:10:17.032Z,83.53
2023-04-28T12:12:51.904Z,83.85
2023-04-28T12:15:21.217Z,83.40
2023-04-28T12:17:50.763Z,82.73
2023-04-28T12:20:38.468Z,81.70
2023-04-28T12:23:06.179Z,84.35
2023-04-28T12:25:34.101Z,81.06
2023-04-28T12:28:05.659Z,81.00
2023-04-28T12:30:34.505Z,81.83
2023-04-28T12:33:01.372Z,78.13
2023-04-28T12:35:29.300Z,80.30
2023-04-28T12:37:56.993Z,77.38
2023-04-28T12:40:24.578Z,82.53
2023-04-28T12:42:51.494Z,79.65
2023-04-28T12:45:18.279Z,77.80
2023-04-28T12:47:44.986Z,77.96
2023-04-28T12:50:12.068Z,79.80
2023-04-28T12:52:38.654Z,80.00
2023-04-28T12:55:05.683Z,78.54
2023-04-28T12:57:32.410Z,77.12
2023-04-28T12:59:59.014Z,79.09
2023-04-28T13:02:25.988Z,79.10
2023-04-28T13:04:52.957Z,78.58
2023-04-28T13:07:19.831Z,78.05
2023-04-28T13:09:47.601Z,79.78
2023-04-28T13:12:14.941Z,81.33
2023-04-28T13:14:42.130Z,81.63
2023-04-28T13:17:10.109Z,81.00
2023-04-28T13:19:37.391Z,81.52
2023-04-28T13:22:05.903Z,81.19
2023-04-28T13:24:35.761Z,82.41
2023-04-28T13:27:04.011Z,81.56
2023-04-28T13:29:30.634Z,81.89
2023-04-28T13:31:57.317Z,83.11
2023-04-28T13:34:25.488Z,82.29
2023-04-28T13:36:53.991Z,83.63
2023-04-28T13:39:31.751Z,83.40
2023-04-28T13:42:00.210Z,84.18
2023-04-28T13:44:26.861Z,84.50
2023-04-28T13:46:53.760Z,83.27
2023-04-28T13:49:20.410Z,85.62
2023-04-28T13:51:47.409Z,87.13
2023-04-28T13:54:14.193Z,87.05
2023-04-28T13:56:41.552Z,88.35
2023-04-28T13:59:08.183Z,92.35
2023-04-28T14:01:34.849Z,92.39
2023-04-28T14:04:02.043Z,92.33
2023-04-28T14:06:28.990Z,95.93
2023-04-28T14:08:55.650Z,97.47
2023-04-28T14:11:22.760Z,97.02
2023-04-28T14:13:49.421Z,96.41
2023-04-28T14:16:16.508Z,97.70
2023-04-28T14:18:43.185Z,98.95
2023-04-28T14:21:09.987Z,98.02
2023-04-28T14:23:36.665Z,98.06
2023-04-28T14:26:03.568Z,99.06
2023-04-28T14:28:30.154Z,100.00
2023-04-28T14:30:56.884Z,100.00
2023-04-28T14:33:23.656Z,100.00
2023-04-28T14:35:50.232Z,100.00
2023-04-28T14:38:16.910Z,100.00
2023-04-28T14:40:43.535Z,100.00
2023-04-28T14:43:10.116Z,100.00
2023-04-28T14:45:38.191Z,100.00
2023-04-28T14:48:06.765Z,100.00
2023-04-28T14:50:33.554Z,100.00
2023-04-28T14:53:05.334Z,100.00
2023-04-28T14:55:32.041Z,100.00
2023-04-28T14:57:58.898Z,100.00
2023-04-28T15:00:25.533Z,100.00
2023-04-28T15:02:52.240Z,100.00
2023-04-28T15:05:19.478Z,100.00
2023-04-28T15:07:46.114Z,100.00
2023-04-28T15:10:12.761Z,100.00
2023-04-28T15:12:40.100Z,100.00
2023-04-28T15:15:07.884Z,100.00
2023-04-28T15:17:34.678Z,100.00
2023-04-28T15:20:01.392Z,100.00
2023-04-28T15:22:27.938Z,100.00
2023-04-28T15:24:55.795Z,100.00
2023-04-28T15:27:23.113Z,100.00
2023-04-28T15:29:50.478Z,100.00
2023-04-28T15:32:17.582Z,100.00
2023-04-28T15:34:44.215Z,100.00
2023-04-28T15:37:44.525Z,100.00
2023-04-28T15:40:16.596Z,100.00
2023-04-28T15:42:48.867Z,100.00
2023-04-28T15:45:16.660Z,100.00
2023-04-28T15:47:43.851Z,100.00
2023-04-28T15:50:11.646Z,100.00
2023-04-28T15:52:40.693Z,100.00
2023-04-28T15:55:08.445Z,100.00
2023-04-28T15:57:36.576Z,100.00
2023-04-28T16:00:03.517Z,100.00
2023-04-28T16:02:34.934Z,100.00
2023-04-28T16:05:03.594Z,100.00
2023-04-28T16:07:37.694Z,100.00
2023-04-28T16:10:08.513Z,100.00
2023-04-28T16:12:36.248Z,100.00
2023-04-28T16:15:03.955Z,100.00
2023-04-28T16:17:30.750Z,100.00
2023-04-28T16:20:00.009Z,100.00
2023-04-28T16:22:41.325Z,100.00
2023-04-28T16:25:29.752Z,100.00
2023-04-28T16:28:04.500Z,100.00
2023-04-28T16:30:41.891Z,100.00
2023-04-28T16:33:18.836Z,100.00
2023-04-28T16:35:59.516Z,100.00
2023-04-28T16:38:29.215Z,100.00
2023-04-28T16:41:01.337Z,100.00
2023-04-28T16:43:32.756Z,100.00
2023-04-28T16:46:24.097Z,100.00
2023-04-28T16:48:59.312Z,100.00
2023-04-28T16:51:33.056Z,100.00
2023-04-28T16:54:04.753Z,100.00
2023-04-28T16:56:57.548Z,100.00
2023-04-28T16:59:31.823Z,100.00
2023-04-28T17:02:10.104Z,100.00
2023-04-28T17:04:41.824Z,100.00
2023-04-28T17:07:28.999Z,100.00
2023-04-28T17:10:08.505Z,100.00
2023-04-28T17:12:46.146Z,100.00
2023-04-28T17:15:24.658Z,100.00
2023-04-28T17:17:54.481Z,100.00
2023-04-28T17:20:33.941Z,100.00
2023-04-28T17:23:11.237Z,100.00
2023-04-28T17:25:44.194Z,100.00
2023-04-28T17:28:19.813Z,100.00
2023-04-28T17:31:01.606Z,100.00
2023-04-28T17:33:34.923Z,100.00
2023-04-28T17:36:10.599Z,100.00
2023-04-28T17:39:01.445Z,100.00
2023-04-28T17:44:16.460Z,100.00
2023-04-28T17:47:18.875Z,100.00
2023-04-28T17:50:18.314Z,100.00
2023-04-28T17:52:52.511Z,100.00
2023-04-28T17:55:38.385Z,100.00
2023-04-28T17:58:18.879Z,100.00
2023-04-28T18:00:59.639Z,100.00
2023-04-28T18:03:31.356Z,100.00
2023-04-28T18:06:11.781Z,100.00
2023-04-28T18:08:45.457Z,100.00
2023-04-28T18:11:30.327Z,100.00
2023-04-28T18:17:07.112Z,100.00
2023-04-28T18:19:36.559Z,100.00
2023-04-28T18:22:23.409Z,100.00
2023-04-28T18:24:56.654Z,100.00
2023-04-28T18:27:28.011Z,100.00
2023-04-28T18:30:00.371Z,100.00
2023-04-28T18:32:44.513Z,100.00
2023-04-28T18:35:28.240Z,100.00
2023-04-28T18:38:01.209Z,100.00
2023-04-28T18:40:45.904Z,100.00
2023-04-28T18:43:30.384Z,100.00
2023-04-28T18:46:07.130Z,100.00
2023-04-28T18:48:42.762Z,100.00
2023-04-28T18:51:24.044Z,100.00
2023-04-28T18:54:04.797Z,100.00
2023-04-28T18:56:45.623Z,100.00
2023-04-28T18:59:31.410Z,100.00
2023-04-28T19:01:58.621Z,100.00
2023-04-28T19:04:28.622Z,100.00
2023-04-28T19:07:01.166Z,100.00
2023-04-28T19:09:27.902Z,100.00
2023-04-28T19:11:54.507Z,100.00
2023-04-28T19:14:21.078Z,100.00
2023-04-28T19:16:47.733Z,100.00
2023-04-28T19:19:14.479Z,100.00
2023-04-28T19:21:42.680Z,100.00
2023-04-28T19:24:09.436Z,100.00
2023-04-28T19:26:36.052Z,100.00
2023-04-28T19:29:02.674Z,100.00
2023-04-28T19:31:29.450Z,100.00
2023-04-28T19:33:56.702Z,100.00
2023-04-28T19:36:24.037Z,100.00
2023-04-28T19:38:50.853Z,100.00
2023-04-28T19:41:17.580Z,100.00
2023-04-28T19:43:44.176Z,100.00
2023-04-28T19:46:10.794Z,100.00
2023-04-28T19:48:37.520Z,100.00
2023-04-28T19:51:04.217Z,100.00
2023-04-28T19:53:30.811Z,100.00
2023-04-28T19:56:00.874Z,100.00
2023-04-28T19:58:27.755Z,100.00
2023-04-28T20:00:54.296Z,100.00
2023-04-28T20:03:21.208Z,100.00
2023-04-28T20:05:47.881Z,100.00
2023-04-28T20:08:14.526Z,100.00
2023-04-28T20:10:41.306Z,100.00
2023-04-28T20:13:08.061Z,100.00
2023-04-28T20:15:34.753Z,100.00
2023-04-28T20:18:01.724Z,100.00
2023-04-28T20:20:28.798Z,100.00
2023-04-28T20:22:55.387Z,100.00
2023-04-28T20:25:22.723Z,100.00
2023-04-28T20:27:49.561Z,100.00
2023-04-28T20:30:16.390Z,100.00
2023-04-28T20:32:43.027Z,100.00
2023-04-28T20:35:10.010Z,100.00
2023-04-28T20:37:36.705Z,100.00
2023-04-28T20:40:04.643Z,100.00
2023-04-28T20:42:31.254Z,100.00
2023-04-28T20:44:58.207Z,100.00
2023-04-28T20:47:24.871Z,100.00
2023-04-28T20:49:51.755Z,100.00
2023-04-28T20:52:18.541Z,100.00
2023-04-28T20:54:45.768Z,100.00
2023-04-28T20:57:12.391Z,100.00
2023-04-28T20:59:39.015Z,100.00
2023-04-28T21:02:05.823Z,100.00
2023-04-28T21:04:32.885Z,100.00
2023-04-28T21:06:59.529Z,100.00
2023-04-28T21:09:26.678Z,100.00
2023-04-28T21:11:53.566Z,100.00
2023-04-28T21:14:20.263Z,100.00
2023-04-28T21:16:46.895Z,100.00
2023-04-28T21:19:13.520Z,100.00
2023-04-28T21:21:40.080Z,100.00
2023-04-28T21:24:08.124Z,100.00
2023-04-28T21:26:35.829Z,100.00
2023-04-28T21:29:02.889Z,100.00
2023-04-28T21:31:30.583Z,100.00
2023-04-28T21:33:57.616Z,100.00
2023-04-28T21:36:24.378Z,100.00
2023-04-28T21:38:50.957Z,100.00
2023-04-28T21:41:17.660Z,100.00
2023-04-28T21:43:44.306Z,100.00
2023-04-28T21:46:11.330Z,100.00
2023-04-28T21:48:38.563Z,100.00
2023-04-28T21:51:05.524Z,100.00
2023-04-28T21:53:32.101Z,100.00
2023-04-28T21:55:58.719Z,100.00
2023-04-28T21:58:25.331Z,100.00
2023-04-28T22:00:52.246Z,100.00
2023-04-28T22:03:19.089Z,100.00
2023-04-28T22:05:45.938Z,100.00
2023-04-28T22:08:17.031Z,100.00
2023-04-28T22:10:45.517Z,100.00
2023-04-28T22:13:13.015Z,100.00
2023-04-28T22:15:39.944Z,100.00
2023-04-28T22:18:07.925Z,100.00
2023-04-28T22:20:34.628Z,100.00
2023-04-28T22:23:01.243Z,100.00
2023-04-28T22:25:27.795Z,100.00
2023-04-28T22:27:54.438Z,100.00
2023-04-28T22:30:21.464Z,100.00
2023-04-28T22:32:49.288Z,100.00
2023-04-28T22:35:16.729Z,100.00
2023-04-28T22:37:43.614Z,100.00
2023-04-28T22:40:11.445Z,100.00
2023-04-28T22:42:39.471Z,100.00
2023-04-28T22:45:06.537Z,100.00
2023-04-28T22:47:34.664Z,100.00
2023-04-28T22:50:04.163Z,100.00
2023-04-28T22:52:30.766Z,100.00
2023-04-28T22:54:57.481Z,100.00
2023-04-28T22:57:24.234Z,100.00
2023-04-28T22:59:51.111Z,100.00
2023-04-28T23:02:18.070Z,100.00
2023-04-28T23:04:44.764Z,100.00
2023-04-28T23:07:11.377Z,100.00
2023-04-28T23:09:37.944Z,100.00
2023-04-28T23:12:04.839Z,100.00
2023-04-28T23:14:32.233Z,100.00
2023-04-28T23:16:59.050Z,100.00
2023-04-28T23:19:26.007Z,100.00
2023-04-28T23:21:52.691Z,100.00
2023-04-28T23:24:19.261Z,100.00
2023-04-28T23:26:45.864Z,100.00
2023-04-28T23:29:12.380Z,100.00
2023-04-28T23:31:39.724Z,100.00
2023-04-28T23:34:06.566Z,100.00
2023-04-28T23:36:33.121Z,100.00
2023-04-28T23:38:59.670Z,100.00
2023-04-28T23:41:27.037Z,100.00
2023-04-28T23:43:53.701Z,100.00
2023-04-28T23:46:20.481Z,100.00
2023-04-28T23:48:47.303Z,100.00
2023-04-28T23:51:13.803Z,100.00
2023-04-28T23:53:40.775Z,100.00
2023-04-28T23:56:07.441Z,100.00
2023-04-28T23:58:33.989Z,100.00
